Time;durP1;ratioP1;P1;durP2;ratioP2;P2;SDS_P1;SDS_P2;PMS_P1;PMS_P2;Temp;Humidity;BMP_temperature;BMP_pressure;BME280_temperature;BME280_humidity;BME280_pressure;Samples;Min_cycle;Max_cycle;Signal;HPM_P1;HPM_P2
2022/09/06 00:00:26;;;;;;;7.80;5.43;;;;;;;16.68;99.39;95363.66;5069177;28;20587;-78
2022/09/06 00:02:53;;;;;;;9.63;5.57;;;;;;;16.60;99.95;95371.91;5068561;28;20197;-79
2022/09/06 00:05:21;;;;;;;8.20;5.10;;;;;;;16.51;100.00;95370.69;5068860;28;20209;-77
2022/09/06 00:07:48;;;;;;;9.33;5.47;;;;;;;16.49;100.00;95370.94;5068694;28;20209;-79
2022/09/06 00:10:15;;;;;;;6.77;5.20;;;;;;;16.64;100.00;95371.22;5068569;28;20210;-79
2022/09/06 00:12:42;;;;;;;7.83;5.13;;;;;;;16.67;100.00;95364.69;5068264;28;21364;-79
2022/09/06 00:15:10;;;;;;;6.67;5.23;;;;;;;16.69;100.00;95375.75;5068131;28;20213;-79
2022/09/06 00:17:36;;;;;;;10.77;5.33;;;;;;;16.47;100.00;95375.63;5069697;28;20300;-79
2022/09/06 00:20:04;;;;;;;12.40;5.43;;;;;;;16.40;100.00;95367.88;5070011;28;20206;-79
2022/09/06 00:22:32;;;;;;;8.97;5.13;;;;;;;16.35;100.00;95373.06;5068113;28;20204;-80
2022/09/06 00:24:59;;;;;;;9.30;5.20;;;;;;;16.40;100.00;95372.34;5069184;28;20213;-78
2022/09/06 00:27:27;;;;;;;8.57;5.37;;;;;;;16.39;100.00;95368.13;5069159;28;20204;-78
2022/09/06 00:29:54;;;;;;;7.13;5.40;;;;;;;16.46;100.00;95366.16;5068149;28;20224;-79
2022/09/06 00:32:20;;;;;;;10.17;5.20;;;;;;;16.38;100.00;95366.53;5067539;28;20209;-79
2022/09/06 00:34:47;;;;;;;12.30;5.60;;;;;;;16.24;100.00;95370.47;5068128;28;20212;-79
2022/09/06 00:37:14;;;;;;;9.10;5.00;;;;;;;16.16;100.00;95365.63;5068377;28;20205;-80
2022/09/06 00:39:42;;;;;;;8.50;5.50;;;;;;;16.20;100.00;95371.97;5069286;28;20355;-80
2022/09/06 00:42:09;;;;;;;7.80;5.43;;;;;;;16.25;100.00;95372.84;5068391;28;20928;-79
2022/09/06 00:44:36;;;;;;;11.13;5.60;;;;;;;16.29;100.00;95365.31;5067846;28;20223;-80
2022/09/06 00:47:04;;;;;;;8.70;5.67;;;;;;;16.29;100.00;95358.25;5069261;28;20276;-80
2022/09/06 00:49:34;;;;;;;8.07;5.40;;;;;;;16.26;100.00;95357.91;5068479;28;20257;-79
2022/09/06 00:52:06;;;;;;;9.90;5.23;;;;;;;16.23;100.00;95363.63;5067760;28;20209;-80
2022/09/06 00:54:33;;;;;;;14.07;5.50;;;;;;;16.06;100.00;95371.47;5068697;28;20209;-79
2022/09/06 00:57:01;;;;;;;8.17;5.43;;;;;;;15.92;100.00;95369.34;5068075;28;20204;-78
2022/09/06 00:59:31;;;;;;;8.80;5.60;;;;;;;15.97;100.00;95372.88;5067888;28;20228;-78
2022/09/06 01:01:58;;;;;;;10.30;5.43;;;;;;;15.86;100.00;95365.84;5067454;28;20676;-78
2022/09/06 01:04:27;;;;;;;6.87;5.03;;;;;;;15.87;100.00;95370.84;5067169;28;20231;-78
2022/09/06 01:07:02;;;;;;;12.03;5.23;;;;;;;15.87;100.00;95368.22;5066777;28;20205;-78
2022/09/06 01:09:46;;;;;;;7.93;5.37;;;;;;;15.81;100.00;95368.38;5066134;28;20229;-78
2022/09/06 01:12:34;;;;;;;9.33;5.40;;;;;;;15.81;100.00;95368.38;5060687;28;20204;-78
2022/09/06 01:15:15;;;;;;;7.13;5.30;;;;;;;15.88;100.00;95367.19;5063190;28;20205;-78
2022/09/06 01:17:55;;;;;;;9.63;5.13;;;;;;;15.86;100.00;95368.47;5066188;28;20201;-77
2022/09/06 01:20:43;;;;;;;7.03;5.13;;;;;;;15.87;100.00;95370.84;5065417;28;20197;-78
2022/09/06 01:23:32;;;;;;;9.83;5.60;;;;;;;15.85;100.00;95362.41;5062329;28;20201;-79
2022/09/06 01:26:08;;;;;;;9.10;5.23;;;;;;;15.93;100.00;95365.72;5067324;28;20212;-79
2022/09/06 01:28:40;;;;;;;6.63;5.13;;;;;;;15.93;100.00;95355.22;5066817;28;20209;-79
2022/09/06 01:31:19;;;;;;;7.47;5.63;;;;;;;15.89;100.00;95355.69;5066866;28;20225;-79
2022/09/06 01:33:54;;;;;;;8.87;5.40;;;;;;;15.92;100.00;95358.88;5066086;28;20668;-79
2022/09/06 01:36:24;;;;;;;8.40;5.30;;;;;;;15.95;100.00;95355.78;5067340;28;20196;-79
2022/09/06 01:38:51;;;;;;;7.90;5.53;;;;;;;15.80;100.00;95362.31;5067279;28;20201;-78
2022/09/06 01:41:18;;;;;;;11.30;6.40;;;;;;;15.80;100.00;95358.91;5068028;28;20213;-78
2022/09/06 01:43:48;;;;;;;8.13;5.57;;;;;;;15.67;100.00;95341.59;5066960;28;20209;-78
2022/09/06 01:46:19;;;;;;;9.03;5.57;;;;;;;15.69;100.00;95355.28;5066878;28;20205;-78
2022/09/06 01:49:15;;;;;;;9.13;6.10;;;;;;;15.64;100.00;95344.69;5066847;28;21109;-78
2022/09/06 01:51:57;;;;;;;6.77;5.03;;;;;;;15.71;100.00;95340.13;5061842;28;20232;-78
2022/09/06 01:54:42;;;;;;;8.30;5.40;;;;;;;15.75;100.00;95340.47;5066944;28;20205;-79
2022/09/06 01:57:22;;;;;;;8.13;5.87;;;;;;;15.70;100.00;95330.66;5066234;28;20205;-79
2022/09/06 02:00:04;;;;;;;9.33;6.40;;;;;;;15.67;100.00;95343.44;5067314;28;20208;-79
2022/09/06 02:02:41;;;;;;;8.33;6.20;;;;;;;15.64;100.00;95342.06;5062306;28;20197;-79
2022/09/06 02:05:13;;;;;;;8.67;5.90;;;;;;;15.66;100.00;95342.66;5067129;28;20247;-75
2022/09/06 02:07:43;;;;;;;8.50;5.87;;;;;;;15.53;100.00;95326.38;5064995;28;20209;-76
2022/09/06 02:10:17;;;;;;;8.40;5.80;;;;;;;15.66;100.00;95337.41;5065208;28;20237;-74
2022/09/06 02:12:47;;;;;;;8.90;6.57;;;;;;;15.61;100.00;95334.66;5066258;28;20212;-74
2022/09/06 02:15:22;;;;;;;13.53;6.53;;;;;;;15.61;100.00;95339.91;5066145;28;20229;-75
2022/09/06 02:17:57;;;;;;;11.30;6.60;;;;;;;15.61;100.00;95339.13;5065394;28;20205;-75
2022/09/06 02:20:29;;;;;;;9.30;6.10;;;;;;;15.61;100.00;95341.75;5067044;28;20204;-73
2022/09/06 02:23:00;;;;;;;8.40;6.10;;;;;;;15.52;100.00;95330.03;5057115;28;20201;-74
2022/09/06 02:25:33;;;;;;;9.63;5.43;;;;;;;15.47;100.00;95332.56;5067138;28;20201;-74
2022/09/06 02:28:01;;;;;;;10.87;6.37;;;;;;;15.45;100.00;95342.41;5066516;28;20208;-74
2022/09/06 02:30:29;;;;;;;10.40;6.17;;;;;;;15.52;100.00;95340.53;5065760;28;20216;-75
2022/09/06 02:32:59;;;;;;;11.60;6.30;;;;;;;15.52;100.00;95343.94;5065654;28;20326;-74
2022/09/06 02:35:27;;;;;;;7.73;5.80;;;;;;;15.42;100.00;95342.88;5066075;28;20201;-75
2022/09/06 02:37:55;;;;;;;10.90;5.37;;;;;;;15.39;100.00;95343.34;5064982;28;20209;-75
2022/09/06 02:40:22;;;;;;;10.90;6.17;;;;;;;15.35;100.00;95338.56;5064022;28;20206;-75
2022/09/06 02:42:49;;;;;;;8.40;6.03;;;;;;;15.35;100.00;95346.41;5064893;28;20209;-75
2022/09/06 02:45:16;;;;;;;11.53;6.20;;;;;;;15.32;100.00;95352.13;5065581;28;20208;-75
2022/09/06 02:47:44;;;;;;;10.33;6.13;;;;;;;15.38;100.00;95347.81;5065687;28;20208;-74
2022/09/06 02:50:12;;;;;;;11.20;6.20;;;;;;;15.33;100.00;95355.53;5065506;28;20244;-75
2022/09/06 02:52:38;;;;;;;9.73;6.40;;;;;;;15.29;100.00;95347.34;5065366;28;20217;-74
2022/09/06 02:55:07;;;;;;;8.77;6.37;;;;;;;15.18;100.00;95342.13;5067241;28;20201;-73
2022/09/06 02:57:33;;;;;;;20.77;13.33;;;;;;;15.22;100.00;95348.50;5065674;28;20205;-74
2022/09/06 03:00:00;;;;;;;34.87;24.27;;;;;;;15.27;100.00;95344.16;5064680;28;20209;-74
2022/09/06 03:02:27;;;;;;;38.73;23.20;;;;;;;15.29;100.00;95336.09;5065733;28;20683;-74
2022/09/06 03:04:55;;;;;;;33.70;21.23;;;;;;;15.23;100.00;95340.41;5065209;28;20201;-74
2022/09/06 03:07:22;;;;;;;26.90;17.37;;;;;;;15.28;100.00;95342.34;5064710;28;20202;-75
2022/09/06 03:09:49;;;;;;;19.83;14.30;;;;;;;15.22;100.00;95340.63;5065406;28;20221;-75
2022/09/06 03:12:16;;;;;;;22.03;12.50;;;;;;;15.24;100.00;95343.81;5064973;28;20209;-75
2022/09/06 03:14:42;;;;;;;16.37;10.43;;;;;;;15.22;100.00;95340.63;5064243;28;20212;-75
2022/09/06 03:17:09;;;;;;;14.90;9.57;;;;;;;15.19;100.00;95343.72;5064336;28;21021;-76
2022/09/06 03:19:36;;;;;;;12.43;8.97;;;;;;;15.12;100.00;95343.06;5065082;28;20202;-76
2022/09/06 03:22:04;;;;;;;20.53;11.27;;;;;;;15.15;100.00;95345.22;5065563;28;20201;-76
2022/09/06 03:24:31;;;;;;;16.93;11.37;;;;;;;15.09;100.00;95336.41;5065459;28;20220;-76
2022/09/06 03:26:58;;;;;;;21.20;11.10;;;;;;;15.12;100.00;95345.66;5064368;28;20247;-75
2022/09/06 03:29:24;;;;;;;14.80;9.47;;;;;;;15.14;100.00;95347.03;5065639;28;20288;-76
2022/09/06 03:31:51;;;;;;;12.33;7.93;;;;;;;15.13;100.00;95348.03;5064385;28;20212;-77
2022/09/06 03:34:18;;;;;;;15.13;7.40;;;;;;;14.99;100.00;95349.31;5063102;28;20202;-75
2022/09/06 03:36:45;;;;;;;13.87;8.07;;;;;;;15.02;100.00;95355.91;5063440;28;20209;-76
2022/09/06 03:39:13;;;;;;;17.33;10.47;;;;;;;15.05;100.00;95353.63;5064728;28;20201;-76
2022/09/06 03:41:40;;;;;;;20.77;11.90;;;;;;;15.04;100.00;95361.69;5057556;28;20213;-75
2022/09/06 03:44:07;;;;;;;16.93;10.97;;;;;;;15.12;100.00;95361.38;5066012;28;20225;-76
2022/09/06 03:46:34;;;;;;;13.90;10.07;;;;;;;15.11;100.00;95365.00;5064540;28;20209;-75
2022/09/06 03:49:00;;;;;;;15.77;9.60;;;;;;;15.07;100.00;95362.03;5064348;28;20695;-75
2022/09/06 03:51:27;;;;;;;23.17;9.90;;;;;;;14.96;100.00;95352.38;5065064;28;20633;-76
2022/09/06 03:53:54;;;;;;;13.50;8.73;;;;;;;15.02;100.00;95359.31;5063958;28;20214;-74
2022/09/06 03:56:23;;;;;;;12.20;8.50;;;;;;;15.03;100.00;95360.94;5064831;28;20213;-75
2022/09/06 03:58:49;;;;;;;13.33;7.77;;;;;;;15.00;100.00;95369.22;5065779;28;20209;-74
2022/09/06 04:01:16;;;;;;;12.03;7.93;;;;;;;15.07;100.00;95366.47;5064380;28;20202;-76
2022/09/06 04:03:43;;;;;;;13.83;7.60;;;;;;;15.09;100.00;95369.69;5063625;28;20207;-75
2022/09/06 04:06:10;;;;;;;13.10;7.50;;;;;;;14.98;100.00;95373.09;5064911;28;20205;-75
2022/09/06 04:08:37;;;;;;;12.63;7.67;;;;;;;14.88;100.00;95367.63;5064766;28;20226;-75
2022/09/06 04:11:05;;;;;;;11.93;7.20;;;;;;;14.87;100.00;95374.66;5063964;28;20766;-75
2022/09/06 04:13:35;;;;;;;15.80;8.33;;;;;;;14.86;100.00;95370.47;5062660;28;20209;-75
2022/09/06 04:16:02;;;;;;;13.43;7.43;;;;;;;14.78;100.00;95368.16;5064436;28;20256;-74
2022/09/06 04:18:29;;;;;;;13.27;7.93;;;;;;;14.83;100.00;95363.06;5065033;28;20209;-75
2022/09/06 04:20:56;;;;;;;18.03;8.47;;;;;;;14.69;100.00;95343.34;5064871;28;20201;-74
2022/09/06 04:23:24;;;;;;;16.17;9.03;;;;;;;14.75;100.00;95351.09;5065296;28;20786;-74
2022/09/06 04:25:52;;;;;;;14.27;8.23;;;;;;;14.88;100.00;95365.00;5069407;28;20212;-75
2022/09/06 04:28:19;;;;;;;12.97;7.50;;;;;;;14.90;100.00;95365.56;5069048;28;20201;-75
2022/09/06 04:30:52;;;;;;;15.30;8.27;;;;;;;14.89;100.00;95370.00;5067308;28;20227;-75
2022/09/06 04:33:19;;;;;;;13.27;7.63;;;;;;;14.89;100.00;95370.00;5067633;28;20201;-75
2022/09/06 04:35:48;;;;;;;17.97;8.13;;;;;;;14.92;100.00;95369.53;5067414;28;20201;-75
2022/09/06 04:38:15;;;;;;;12.90;8.47;;;;;;;14.89;100.00;95364.00;5067741;28;20243;-74
2022/09/06 04:40:42;;;;;;;13.93;7.90;;;;;;;14.92;100.00;95369.53;5068206;28;20205;-74
2022/09/06 04:43:09;;;;;;;14.67;8.00;;;;;;;14.98;100.00;95371.25;5067999;28;20221;-74
2022/09/06 04:45:36;;;;;;;17.00;7.60;;;;;;;15.09;100.00;95373.06;5068003;28;20201;-74
2022/09/06 04:48:04;;;;;;;16.43;7.70;;;;;;;15.08;100.00;95361.03;5066624;28;20224;-75
2022/09/06 04:50:31;;;;;;;12.00;7.97;;;;;;;15.12;100.00;95366.63;5066837;28;20229;-74
2022/09/06 04:52:58;;;;;;;9.83;7.30;;;;;;;15.08;100.00;95368.88;5068096;28;20221;-74
2022/09/06 04:55:28;;;;;;;12.97;7.27;;;;;;;15.14;100.00;95367.97;5068154;28;20221;-74
2022/09/06 04:57:55;;;;;;;16.23;7.67;;;;;;;15.15;100.00;95363.53;5067609;28;20214;-75
2022/09/06 05:00:22;;;;;;;17.80;7.90;;;;;;;15.20;100.00;95366.25;5067951;28;20611;-74
2022/09/06 05:02:49;;;;;;;13.13;7.73;;;;;;;15.22;100.00;95362.38;5068968;28;20213;-75
2022/09/06 05:05:17;;;;;;;14.93;7.63;;;;;;;15.25;100.00;95369.78;5066989;28;20217;-73
2022/09/06 05:07:44;;;;;;;17.33;8.60;;;;;;;15.30;100.00;95374.31;5066341;28;20213;-74
2022/09/06 05:10:10;;;;;;;15.23;7.67;;;;;;;15.33;100.00;95360.78;5066736;28;20260;-74
2022/09/06 05:12:37;;;;;;;11.13;7.13;;;;;;;15.32;100.00;95364.44;5066982;28;20282;-74
2022/09/06 05:15:04;;;;;;;12.70;7.80;;;;;;;15.40;100.00;95366.69;5067361;28;20208;-74
2022/09/06 05:17:31;;;;;;;13.13;8.47;;;;;;;15.46;100.00;95363.16;5066640;28;21054;-74
2022/09/06 05:19:58;;;;;;;16.07;8.00;;;;;;;15.45;100.00;95358.13;5067589;28;20243;-75
2022/09/06 05:22:26;;;;;;;14.47;8.57;;;;;;;15.44;100.00;95356.56;5066879;28;20594;-75
2022/09/06 05:24:53;;;;;;;12.83;7.90;;;;;;;15.44;100.00;95356.56;5064926;28;20201;-75
2022/09/06 05:27:20;;;;;;;14.20;7.50;;;;;;;15.53;100.00;95363.06;5065450;28;20303;-75
2022/09/06 05:29:47;;;;;;;10.73;7.33;;;;;;;15.58;100.00;95358.75;5067837;28;20901;-76
2022/09/06 05:32:13;;;;;;;13.40;7.20;;;;;;;15.56;100.00;95358.16;5068210;28;20204;-75
2022/09/06 05:34:40;;;;;;;11.33;7.53;;;;;;;15.65;100.00;95361.22;5066921;28;20197;-74
2022/09/06 05:37:07;;;;;;;11.23;7.43;;;;;;;15.68;100.00;95364.16;5066653;28;20209;-74
2022/09/06 05:39:35;;;;;;;12.30;7.63;;;;;;;15.72;100.00;95361.88;5066854;28;20646;-74
2022/09/06 05:42:05;;;;;;;13.07;7.27;;;;;;;15.69;100.00;95370.22;5066329;28;20209;-73
2022/09/06 05:44:32;;;;;;;9.20;7.20;;;;;;;15.76;100.00;95369.03;5065391;28;20220;-74
2022/09/06 05:46:59;;;;;;;10.87;7.00;;;;;;;15.78;100.00;95368.81;5066247;28;20211;-74
2022/09/06 05:49:25;;;;;;;11.40;7.60;;;;;;;15.75;100.00;95369.28;5066196;28;20294;-74
2022/09/06 05:51:52;;;;;;;12.40;7.50;;;;;;;15.85;100.00;95367.66;5065913;28;20229;-74
2022/09/06 05:54:19;;;;;;;10.60;7.30;;;;;;;15.92;100.00;95362.28;5066510;28;20212;-74
2022/09/06 05:56:47;;;;;;;13.73;8.00;;;;;;;15.93;100.00;95348.13;5066022;28;20216;-74
2022/09/06 05:59:14;;;;;;;10.87;7.63;;;;;;;15.89;100.00;95347.03;5066887;28;20952;-73
2022/09/06 06:01:48;;;;;;;12.67;7.83;;;;;;;15.81;100.00;95356.03;5072852;28;20207;-75
2022/09/06 06:04:17;;;;;;;21.83;7.67;;;;;;;15.76;100.00;95350.69;5066490;28;20212;-75
2022/09/06 06:06:45;;;;;;;13.13;8.10;;;;;;;15.67;100.00;95346.84;5071034;28;20288;-75
2022/09/06 06:09:13;;;;;;;16.03;8.13;;;;;;;15.71;100.00;95347.97;5070881;28;20267;-75
2022/09/06 06:11:40;;;;;;;12.30;8.50;;;;;;;15.78;100.00;95348.66;5070211;28;20213;-75
2022/09/06 06:14:09;;;;;;;11.30;8.17;;;;;;;15.80;100.00;95348.41;5071498;28;20204;-74
2022/09/06 06:16:36;;;;;;;13.87;8.40;;;;;;;15.87;100.00;95342.00;5068907;28;20225;-75
2022/09/06 06:19:03;;;;;;;10.30;8.43;;;;;;;15.90;100.00;95336.28;5066876;28;20198;-75
2022/09/06 06:21:32;;;;;;;13.13;7.70;;;;;;;15.97;100.00;95335.34;5066851;28;20189;-74
2022/09/06 06:24:00;;;;;;;13.60;7.87;;;;;;;16.07;100.00;95328.50;5069308;28;20197;-74
2022/09/06 06:26:30;;;;;;;11.97;7.77;;;;;;;16.13;100.00;95339.88;5069924;28;20214;-74
2022/09/06 06:29:00;;;;;;;12.77;8.47;;;;;;;16.19;100.00;95331.06;5065626;28;20861;-74
2022/09/06 06:31:29;;;;;;;12.13;7.87;;;;;;;16.20;100.00;95330.81;5060423;28;20233;-74
2022/09/06 06:33:57;;;;;;;13.17;7.90;;;;;;;16.25;100.00;95333.50;5066431;28;20209;-75
2022/09/06 06:36:26;;;;;;;21.57;8.60;;;;;;;16.27;100.00;95333.28;5065885;28;20729;-75
2022/09/06 06:38:54;;;;;;;15.43;9.10;;;;;;;16.32;100.00;95338.63;5065921;28;20205;-74
2022/09/06 06:41:23;;;;;;;13.50;8.63;;;;;;;16.45;100.00;95327.81;5066241;28;20288;-74
2022/09/06 06:43:51;;;;;;;14.63;9.50;;;;;;;16.42;100.00;95330.94;5065154;28;20284;-74
2022/09/06 06:46:19;;;;;;;16.07;8.73;;;;;;;16.50;100.00;95330.53;5064134;28;20648;-74
2022/09/06 06:48:48;;;;;;;11.70;8.70;;;;;;;16.57;100.00;95336.44;5065445;28;20231;-74
2022/09/06 06:51:16;;;;;;;14.53;9.03;;;;;;;16.59;100.00;95334.41;5065636;28;20226;-73
2022/09/06 06:53:43;;;;;;;14.50;9.70;;;;;;;16.63;100.00;95332.06;5064310;28;20583;-74
2022/09/06 06:56:16;;;;;;;13.97;9.20;;;;;;;16.71;100.00;95329.84;5064083;28;20205;-75
2022/09/06 06:58:43;;;;;;;14.43;9.13;;;;;;;16.71;100.00;95335.09;5064561;28;20205;-75
2022/09/06 07:01:10;;;;;;;12.83;9.77;;;;;;;16.81;100.00;95337.09;5065801;28;20197;-74
2022/09/06 07:03:37;;;;;;;15.50;9.37;;;;;;;16.84;100.00;95329.53;5065000;28;20209;-75
2022/09/06 07:06:06;;;;;;;14.47;10.07;;;;;;;16.99;99.59;95335.03;5064974;28;20206;-75
2022/09/06 07:08:34;;;;;;;13.33;9.17;;;;;;;17.02;99.34;95339.78;5065239;28;20692;-74
2022/09/06 07:11:01;;;;;;;12.77;9.10;;;;;;;17.08;99.17;95339.84;5065116;28;20232;-74
2022/09/06 07:13:27;;;;;;;14.10;9.10;;;;;;;17.18;97.88;95343.41;5064407;28;20212;-74
2022/09/06 07:16:07;;;;;;;11.00;8.67;;;;;;;17.24;97.58;95342.44;5064109;28;20248;-73
2022/09/06 07:18:34;;;;;;;13.30;8.93;;;;;;;17.28;97.60;95348.03;5064134;28;20723;-74
2022/09/06 07:21:00;;;;;;;22.47;9.53;;;;;;;17.36;97.72;95344.97;5065282;28;20201;-74
2022/09/06 07:23:29;;;;;;;15.37;9.57;;;;;;;17.41;97.46;95340.56;5065362;28;20212;-74
2022/09/06 07:25:55;;;;;;;15.07;10.17;;;;;;;17.50;97.52;95343.59;5065269;28;20208;-74
2022/09/06 07:28:23;;;;;;;18.37;10.67;;;;;;;17.53;96.78;95348.34;5062879;28;20266;-74
2022/09/06 07:30:54;;;;;;;18.17;10.47;;;;;;;17.54;95.54;95342.09;5064068;28;20319;-74
2022/09/06 07:33:21;;;;;;;15.33;11.00;;;;;;;17.54;96.20;95345.53;5065309;28;20205;-74
2022/09/06 07:35:58;;;;;;;16.23;10.50;;;;;;;17.68;95.10;95348.59;5064542;28;20213;-74
2022/09/06 07:38:25;;;;;;;19.00;9.77;;;;;;;18.12;92.28;95344.84;5065654;28;20196;-74
2022/09/06 07:40:58;;;;;;;13.73;9.10;;;;;;;18.38;91.57;95340.66;5064578;28;20624;-73
2022/09/06 07:43:26;;;;;;;12.27;9.43;;;;;;;18.45;91.38;95351.78;5065019;28;20205;-76
2022/09/06 07:46:00;;;;;;;16.07;9.87;;;;;;;18.51;90.63;95350.00;5067641;28;20208;-73
2022/09/06 07:48:29;;;;;;;17.67;10.40;;;;;;;18.46;89.27;95352.56;5070707;28;20235;-77
2022/09/06 07:51:02;;;;;;;14.87;10.10;;;;;;;18.44;88.23;95352.03;5068424;28;20213;-77
2022/09/06 07:53:28;;;;;;;12.63;9.10;;;;;;;18.40;88.99;95345.66;5069105;28;20196;-76
2022/09/06 07:55:57;;;;;;;14.43;9.20;;;;;;;18.39;89.21;95339.59;5067155;28;20206;-76
2022/09/06 07:58:23;;;;;;;17.05;8.57;;;;;;;18.47;89.65;95346.28;5067379;28;20233;-74
2022/09/06 08:00:50;;;;;;;12.10;8.68;;;;;;;18.52;89.59;95341.06;5066960;28;20201;-75
2022/09/06 08:03:17;;;;;;;15.95;8.60;;;;;;;18.58;88.85;95338.25;5066799;28;20202;-76
2022/09/06 08:05:48;;;;;;;16.13;8.95;;;;;;;18.67;88.74;95330.69;5067609;28;20239;-76
2022/09/06 08:08:15;;;;;;;15.27;9.55;;;;;;;18.74;88.57;95338.34;5072086;28;20674;-76
2022/09/06 08:10:41;;;;;;;14.95;8.55;;;;;;;18.77;88.71;95335.22;5071834;28;20217;-76
2022/09/06 08:13:11;;;;;;;11.63;8.80;;;;;;;18.90;87.35;95335.59;5072851;28;20197;-77
2022/09/06 08:15:39;;;;;;;12.13;8.13;;;;;;;18.95;86.94;95326.94;5072511;28;20336;-76
2022/09/06 08:18:06;;;;;;;13.68;7.55;;;;;;;19.02;86.08;95330.91;5070315;28;20213;-76
2022/09/06 08:20:34;;;;;;;12.63;8.45;;;;;;;19.12;85.77;95336.28;5071410;28;20197;-76
2022/09/06 08:23:01;;;;;;;18.63;8.43;;;;;;;19.18;85.90;95342.38;5072488;28;20209;-78
2022/09/06 08:25:29;;;;;;;9.88;7.72;;;;;;;19.48;85.29;95329.38;5071754;28;20637;-78
2022/09/06 08:27:55;;;;;;;10.02;7.70;;;;;;;19.81;83.21;95331.66;5072942;28;20688;-79
2022/09/06 08:30:24;;;;;;;13.00;7.90;;;;;;;19.95;81.27;95331.94;5073886;28;20579;-80
2022/09/06 08:32:51;;;;;;;9.05;7.82;;;;;;;19.92;81.49;95329.81;5071006;28;20263;-78
2022/09/06 08:35:18;;;;;;;16.10;7.95;;;;;;;19.95;81.70;95337.22;5070300;28;20204;-74
2022/09/06 08:37:44;;;;;;;12.63;7.93;;;;;;;19.97;80.22;95319.28;5066659;28;20290;-75
2022/09/06 08:40:12;;;;;;;12.07;7.85;;;;;;;20.03;79.55;95310.31;5067084;28;20212;-74
2022/09/06 08:42:40;;;;;;;12.57;7.57;;;;;;;20.10;79.59;95320.63;5068285;28;20201;-80
2022/09/06 08:45:11;;;;;;;14.15;8.10;;;;;;;20.16;80.83;95317.75;5068054;28;20205;-73
2022/09/06 08:47:39;;;;;;;12.02;7.55;;;;;;;20.28;80.76;95309.63;5068137;28;20263;-79
2022/09/06 08:50:07;;;;;;;10.43;7.10;;;;;;;20.37;78.62;95305.41;5069016;28;20205;-81
2022/09/06 08:52:50;;;;;;;11.43;7.85;;;;;;;20.48;78.91;95301.72;5069024;28;20610;-81
2022/09/06 08:55:30;;;;;;;14.45;7.95;;;;;;;20.61;78.10;95305.66;5066056;28;20753;-80
2022/09/06 08:58:20;;;;;;;8.50;7.00;;;;;;;20.82;76.48;95291.41;5065804;28;20213;-81
2022/09/06 09:00:49;;;;;;;12.48;7.50;;;;;;;21.20;75.37;95298.78;5059972;28;20680;-81
2022/09/06 09:03:21;;;;;;;12.05;7.18;;;;;;;21.45;74.21;95295.28;5068756;28;20216;-80
2022/09/06 09:05:52;;;;;;;12.57;7.57;;;;;;;21.52;73.01;95290.50;5067210;28;20209;-80
2022/09/06 09:08:28;;;;;;;12.75;7.60;;;;;;;21.66;72.67;95285.41;5068364;28;20202;-80
2022/09/06 09:11:01;;;;;;;12.63;7.50;;;;;;;21.73;72.76;95277.97;5068739;28;20292;-80
2022/09/06 09:13:32;;;;;;;12.18;7.82;;;;;;;21.86;72.28;95278.16;5069106;28;20280;-80
2022/09/06 09:15:59;;;;;;;14.60;7.22;;;;;;;21.97;72.13;95274.44;5068246;28;20225;-80
2022/09/06 09:18:32;;;;;;;10.95;6.38;;;;;;;22.18;71.67;95261.84;5068063;28;20197;-81
2022/09/06 09:20:59;;;;;;;10.55;6.75;;;;;;;22.30;71.37;95257.00;5067060;28;20212;-74
2022/09/06 09:23:27;;;;;;;10.18;6.55;;;;;;;22.60;68.73;95261.25;5066935;28;20208;-74
2022/09/06 09:25:58;;;;;;;11.43;5.78;;;;;;;22.79;67.27;95269.38;5064121;28;20288;-73
2022/09/06 09:28:25;;;;;;;7.68;5.88;;;;;;;23.14;65.71;95275.09;5066247;28;20194;-74
2022/09/06 09:30:55;;;;;;;6.88;5.63;;;;;;;23.42;64.39;95268.22;5067750;28;20202;-74
2022/09/06 09:33:25;;;;;;;15.75;6.30;;;;;;;23.66;63.25;95260.25;5067193;28;20203;-74
2022/09/06 09:35:54;;;;;;;9.45;6.90;;;;;;;23.79;60.75;95264.03;5066611;28;20292;-73
2022/09/06 09:38:24;;;;;;;9.25;6.32;;;;;;;23.88;60.86;95259.69;5066247;28;20205;-75
2022/09/06 09:40:53;;;;;;;8.55;6.03;;;;;;;23.99;60.75;95253.94;5064594;28;20220;-75
2022/09/06 09:43:24;;;;;;;8.70;6.25;;;;;;;24.21;61.27;95256.06;5066359;28;20654;-75
2022/09/06 09:46:13;;;;;;;12.05;5.75;;;;;;;24.47;59.65;95249.28;5067231;28;20193;-74
2022/09/06 09:48:41;;;;;;;11.00;6.97;;;;;;;24.66;59.46;95247.38;5062929;28;20213;-75
2022/09/06 09:51:31;;;;;;;8.10;6.07;;;;;;;24.99;58.62;95252.69;5065609;28;20226;-75
2022/09/06 09:54:00;;;;;;;11.05;6.65;;;;;;;25.13;56.60;95253.50;5062279;28;20296;-75
2022/09/06 09:56:34;;;;;;;11.60;6.97;;;;;;;25.28;55.61;95254.00;5066591;28;20201;-75
2022/09/06 09:59:02;;;;;;;8.65;6.82;;;;;;;25.37;54.73;95240.78;5067404;28;20276;-75
2022/09/06 10:01:33;;;;;;;11.85;6.25;;;;;;;25.08;55.23;95230.41;5067554;28;20209;-73
2022/09/06 10:04:08;;;;;;;8.23;6.20;;;;;;;25.25;57.69;95233.28;5065815;28;20204;-73
2022/09/06 10:06:37;;;;;;;11.68;5.88;;;;;;;25.50;55.53;95234.72;5064236;28;20656;-73
2022/09/06 10:09:18;;;;;;;9.82;6.00;;;;;;;25.69;53.21;95238.03;5065612;28;20206;-73
2022/09/06 10:11:54;;;;;;;7.93;5.82;;;;;;;26.10;53.44;95232.63;5066431;28;20215;-74
2022/09/06 10:14:32;;;;;;;7.60;5.60;;;;;;;26.52;51.66;95226.84;5066213;28;20568;-74
2022/09/06 10:17:00;;;;;;;11.10;5.75;;;;;;;26.70;49.26;95227.75;5066424;28;20240;-74
2022/09/06 10:19:46;;;;;;;7.60;4.78;;;;;;;26.38;48.82;95238.66;5064049;28;20219;-76
2022/09/06 10:22:27;;;;;;;8.35;5.65;;;;;;;26.54;50.52;95231.09;5062611;28;20209;-75
2022/09/06 10:25:18;;;;;;;8.25;5.50;;;;;;;26.39;48.67;95222.38;5064556;28;20228;-75
2022/09/06 10:27:59;;;;;;;6.75;5.22;;;;;;;26.41;49.01;95219.41;5064604;28;20200;-75
2022/09/06 10:30:29;;;;;;;7.47;5.40;;;;;;;26.52;49.92;95222.63;5062957;28;20198;-75
2022/09/06 10:33:01;;;;;;;7.00;5.68;;;;;;;26.91;50.45;95218.19;5064330;28;20229;-76
2022/09/06 10:35:31;;;;;;;7.53;5.25;;;;;;;27.25;48.02;95224.75;5065932;28;20232;-76
2022/09/06 10:38:25;;;;;;;5.85;4.82;;;;;;;27.56;45.82;95225.53;5065619;28;20664;-75
2022/09/06 10:41:01;;;;;;;7.35;4.63;;;;;;;27.83;43.80;95221.78;5064481;28;20202;-75
2022/09/06 10:43:41;;;;;;;7.45;4.53;;;;;;;27.88;44.07;95225.09;5063902;28;20254;-75
2022/09/06 10:46:14;;;;;;;5.90;4.70;;;;;;;28.07;44.38;95216.81;5061933;28;20201;-75
2022/09/06 10:48:44;;;;;;;6.00;4.60;;;;;;;28.44;43.46;95218.06;5064735;28;20660;-75
2022/09/06 10:51:19;;;;;;;5.53;4.38;;;;;;;28.73;42.34;95214.75;5062263;28;20185;-73
2022/09/06 10:53:53;;;;;;;5.65;4.30;;;;;;;28.81;41.86;95212.03;5062818;28;20200;-72
2022/09/06 10:56:27;;;;;;;11.32;7.57;;;;;;;29.21;43.78;95207.97;5063515;28;20620;-72
2022/09/06 10:59:02;;;;;;;10.18;7.50;;;;;;;29.52;41.85;95210.38;5064544;28;20205;-73
2022/09/06 11:01:37;;;;;;;7.53;5.97;;;;;;;29.67;39.94;95206.34;5064692;28;20281;-74
2022/09/06 11:04:09;;;;;;;10.32;6.57;;;;;;;29.91;38.87;95203.06;5065304;28;20609;-73
2022/09/06 11:06:44;;;;;;;8.68;6.40;;;;;;;30.02;37.81;95207.72;5065004;28;20193;-73
2022/09/06 11:09:21;;;;;;;6.85;5.70;;;;;;;30.10;38.38;95200.72;5062985;28;20683;-73
2022/09/06 11:11:54;;;;;;;5.03;4.22;;;;;;;30.19;36.65;95209.47;5064112;28;20296;-73
2022/09/06 11:14:25;;;;;;;7.10;5.55;;;;;;;30.38;37.65;95204.47;5065097;28;20676;-74
2022/09/06 11:16:58;;;;;;;7.28;5.18;;;;;;;30.36;37.10;95204.75;5065192;28;20244;-73
2022/09/06 11:19:28;;;;;;;4.82;4.05;;;;;;;30.50;36.02;95201.84;5064724;28;20197;-73
2022/09/06 11:22:22;;;;;;;4.20;3.65;;;;;;;30.25;34.39;95200.91;5065860;28;20245;-75
2022/09/06 11:25:16;;;;;;;3.58;3.28;;;;;;;29.97;37.48;95207.13;5063723;28;20296;-75
2022/09/06 11:27:47;;;;;;;5.13;3.53;;;;;;;30.28;35.73;95194.09;5055850;28;20209;-73
2022/09/06 11:30:16;;;;;;;3.55;3.25;;;;;;;30.56;35.28;95202.41;5064485;28;20220;-73
2022/09/06 11:32:47;;;;;;;5.40;3.50;;;;;;;30.85;34.45;95197.66;5065915;28;20236;-75
2022/09/06 11:35:23;;;;;;;3.72;3.22;;;;;;;30.78;32.66;95196.66;5069040;28;20937;-73